sensor_id;sensor_type;location;lat;lon;timestamp;P1;durP1;ratioP1;P2;durP2;ratioP2
38581;SDS011;24349;53.720;10.014;2023-02-26T00:00:06;4.03;;;1.70;;
38581;SDS011;24349;53.720;10.014;2023-02-26T00:02:37;5.43;;;1.73;;
38581;SDS011;24349;53.720;10.014;2023-02-26T00:05:04;5.60;;;1.55;;
38581;SDS011;24349;53.720;10.014;2023-02-26T00:07:30;4.80;;;1.83;;
38581;SDS011;24349;53.720;10.014;2023-02-26T00:09:56;6.68;;;1.80;;
38581;SDS011;24349;53.720;10.014;2023-02-26T00:12:21;7.28;;;1.95;;
38581;SDS011;24349;53.720;10.014;2023-02-26T00:14:47;5.50;;;2.13;;
38581;SDS011;24349;53.720;10.014;2023-02-26T00:20:00;6.07;;;1.90;;
38581;SDS011;24349;53.720;10.014;2023-02-26T00:22:27;7.90;;;1.98;;
38581;SDS011;24349;53.720;10.014;2023-02-26T00:24:53;7.82;;;1.90;;
38581;SDS011;24349;53.720;10.014;2023-02-26T00:27:19;7.35;;;2.22;;
38581;SDS011;24349;53.720;10.014;2023-02-26T00:29:45;8.68;;;2.00;;
38581;SDS011;24349;53.720;10.014;2023-02-26T00:32:11;5.75;;;1.50;;
38581;SDS011;24349;53.720;10.014;2023-02-26T00:34:37;4.90;;;1.63;;
38581;SDS011;24349;53.720;10.014;2023-02-26T00:42:52;6.28;;;1.50;;
38581;SDS011;24349;53.720;10.014;2023-02-26T00:45:18;4.28;;;1.50;;
38581;SDS011;24349;53.720;10.014;2023-02-26T00:48:21;6.07;;;1.67;;
38581;SDS011;24349;53.720;10.014;2023-02-26T00:50:46;5.85;;;2.05;;
38581;SDS011;24349;53.720;10.014;2023-02-26T00:53:43;5.03;;;1.45;;
38581;SDS011;24349;53.720;10.014;2023-02-26T00:56:13;7.05;;;1.48;;
38581;SDS011;24349;53.720;10.014;2023-02-26T00:58:39;4.43;;;1.55;;
38581;SDS011;24349;53.720;10.014;2023-02-26T01:01:05;5.78;;;1.60;;
38581;SDS011;24349;53.720;10.014;2023-02-26T01:03:31;3.97;;;1.40;;
38581;SDS011;24349;53.720;10.014;2023-02-26T01:05:57;4.63;;;1.48;;
38581;SDS011;24349;53.720;10.014;2023-02-26T01:11:23;6.40;;;1.60;;
38581;SDS011;24349;53.720;10.014;2023-02-26T01:13:49;6.05;;;1.70;;
38581;SDS011;24349;53.720;10.014;2023-02-26T01:16:23;6.90;;;2.22;;
38581;SDS011;24349;53.720;10.014;2023-02-26T01:18:52;6.60;;;1.90;;
38581;SDS011;24349;53.720;10.014;2023-02-26T01:21:36;5.88;;;1.55;;
38581;SDS011;24349;53.720;10.014;2023-02-26T01:24:07;5.13;;;1.58;;
38581;SDS011;24349;53.720;10.014;2023-02-26T01:26:38;6.30;;;1.63;;
38581;SDS011;24349;53.720;10.014;2023-02-26T01:29:03;5.57;;;1.63;;
38581;SDS011;24349;53.720;10.014;2023-02-26T01:32:03;8.13;;;1.80;;
38581;SDS011;24349;53.720;10.014;2023-02-26T01:34:34;7.60;;;2.00;;
38581;SDS011;24349;53.720;10.014;2023-02-26T01:37:24;5.07;;;1.50;;
38581;SDS011;24349;53.720;10.014;2023-02-26T01:40:27;5.63;;;1.85;;
38581;SDS011;24349;53.720;10.014;2023-02-26T01:43:19;5.82;;;1.60;;
38581;SDS011;24349;53.720;10.014;2023-02-26T01:45:56;7.78;;;2.03;;
38581;SDS011;24349;53.720;10.014;2023-02-26T01:48:47;5.35;;;1.50;;
38581;SDS011;24349;53.720;10.014;2023-02-26T01:51:18;4.03;;;1.50;;
38581;SDS011;24349;53.720;10.014;2023-02-26T01:54:01;7.72;;;1.83;;
38581;SDS011;24349;53.720;10.014;2023-02-26T01:56:27;4.82;;;1.75;;
38581;SDS011;24349;53.720;10.014;2023-02-26T01:58:53;4.40;;;1.50;;
38581;SDS011;24349;53.720;10.014;2023-02-26T02:01:18;5.38;;;1.50;;
38581;SDS011;24349;53.720;10.014;2023-02-26T02:03:44;6.53;;;1.63;;
38581;SDS011;24349;53.720;10.014;2023-02-26T02:06:15;4.22;;;1.30;;
38581;SDS011;24349;53.720;10.014;2023-02-26T02:08:45;5.45;;;1.50;;
38581;SDS011;24349;53.720;10.014;2023-02-26T02:11:11;5.05;;;1.48;;
38581;SDS011;24349;53.720;10.014;2023-02-26T02:21:29;4.22;;;1.30;;
38581;SDS011;24349;53.720;10.014;2023-02-26T02:24:20;6.25;;;1.58;;
38581;SDS011;24349;53.720;10.014;2023-02-26T02:29:27;7.03;;;1.65;;
38581;SDS011;24349;53.720;10.014;2023-02-26T02:32:10;3.30;;;1.20;;
38581;SDS011;24349;53.720;10.014;2023-02-26T02:35:10;5.75;;;1.27;;
38581;SDS011;24349;53.720;10.014;2023-02-26T02:37:44;4.15;;;1.52;;
38581;SDS011;24349;53.720;10.014;2023-02-26T02:40:32;5.07;;;1.40;;
38581;SDS011;24349;53.720;10.014;2023-02-26T02:43:06;5.78;;;1.63;;
38581;SDS011;24349;53.720;10.014;2023-02-26T02:48:17;4.53;;;1.48;;
38581;SDS011;24349;53.720;10.014;2023-02-26T02:57:13;5.82;;;1.73;;
38581;SDS011;24349;53.720;10.014;2023-02-26T03:01:49;4.75;;;1.33;;
38581;SDS011;24349;53.720;10.014;2023-02-26T03:04:29;3.75;;;1.27;;
38581;SDS011;24349;53.720;10.014;2023-02-26T03:06:55;5.63;;;1.52;;
38581;SDS011;24349;53.720;10.014;2023-02-26T03:09:20;4.72;;;1.40;;
38581;SDS011;24349;53.720;10.014;2023-02-26T03:11:46;6.30;;;1.38;;
38581;SDS011;24349;53.720;10.014;2023-02-26T03:14:11;6.03;;;1.45;;
38581;SDS011;24349;53.720;10.014;2023-02-26T03:24:36;2.95;;;1.08;;
38581;SDS011;24349;53.720;10.014;2023-02-26T03:30:08;3.88;;;1.42;;
38581;SDS011;24349;53.720;10.014;2023-02-26T03:35:28;6.85;;;2.05;;
38581;SDS011;24349;53.720;10.014;2023-02-26T03:44:26;4.63;;;1.50;;
38581;SDS011;24349;53.720;10.014;2023-02-26T03:46:58;6.15;;;1.40;;
38581;SDS011;24349;53.720;10.014;2023-02-26T03:49:29;3.92;;;1.10;;
38581;SDS011;24349;53.720;10.014;2023-02-26T03:51:58;4.57;;;1.30;;
38581;SDS011;24349;53.720;10.014;2023-02-26T03:54:27;3.67;;;1.23;;
38581;SDS011;24349;53.720;10.014;2023-02-26T03:57:00;5.22;;;1.23;;
38581;SDS011;24349;53.720;10.014;2023-02-26T03:59:25;4.80;;;1.45;;
38581;SDS011;24349;53.720;10.014;2023-02-26T04:04:33;4.60;;;1.40;;
38581;SDS011;24349;53.720;10.014;2023-02-26T04:07:09;3.40;;;1.20;;
38581;SDS011;24349;53.720;10.014;2023-02-26T04:09:39;8.02;;;1.50;;
38581;SDS011;24349;53.720;10.014;2023-02-26T04:12:06;4.28;;;1.45;;
38581;SDS011;24349;53.720;10.014;2023-02-26T04:14:32;4.15;;;1.40;;
38581;SDS011;24349;53.720;10.014;2023-02-26T04:16:57;3.13;;;1.20;;
38581;SDS011;24349;53.720;10.014;2023-02-26T04:19:23;4.18;;;1.20;;
38581;SDS011;24349;53.720;10.014;2023-02-26T04:21:48;3.60;;;1.27;;
38581;SDS011;24349;53.720;10.014;2023-02-26T04:24:14;6.13;;;1.40;;
38581;SDS011;24349;53.720;10.014;2023-02-26T04:26:40;4.30;;;1.40;;
38581;SDS011;24349;53.720;10.014;2023-02-26T04:29:05;4.32;;;1.20;;
38581;SDS011;24349;53.720;10.014;2023-02-26T04:31:31;6.00;;;1.55;;
38581;SDS011;24349;53.720;10.014;2023-02-26T04:33:57;4.40;;;1.27;;
38581;SDS011;24349;53.720;10.014;2023-02-26T04:36:22;3.97;;;1.27;;
38581;SDS011;24349;53.720;10.014;2023-02-26T04:38:48;4.82;;;1.60;;
38581;SDS011;24349;53.720;10.014;2023-02-26T04:41:13;3.08;;;1.33;;
38581;SDS011;24349;53.720;10.014;2023-02-26T04:43:39;4.88;;;1.20;;
38581;SDS011;24349;53.720;10.014;2023-02-26T04:46:04;3.22;;;1.17;;
38581;SDS011;24349;53.720;10.014;2023-02-26T04:48:30;3.88;;;1.27;;
38581;SDS011;24349;53.720;10.014;2023-02-26T04:50:56;3.13;;;1.10;;
38581;SDS011;24349;53.720;10.014;2023-02-26T04:53:21;3.42;;;1.10;;
38581;SDS011;24349;53.720;10.014;2023-02-26T04:55:47;2.58;;;1.08;;
38581;SDS011;24349;53.720;10.014;2023-02-26T04:58:13;2.33;;;1.00;;
38581;SDS011;24349;53.720;10.014;2023-02-26T05:00:39;4.78;;;1.30;;
38581;SDS011;24349;53.720;10.014;2023-02-26T05:03:05;3.42;;;1.10;;
38581;SDS011;24349;53.720;10.014;2023-02-26T05:05:30;3.58;;;1.00;;
38581;SDS011;24349;53.720;10.014;2023-02-26T05:07:56;5.60;;;1.33;;
38581;SDS011;24349;53.720;10.014;2023-02-26T05:10:22;4.40;;;1.10;;
38581;SDS011;24349;53.720;10.014;2023-02-26T05:12:49;4.60;;;1.15;;
38581;SDS011;24349;53.720;10.014;2023-02-26T05:15:14;3.55;;;1.10;;
38581;SDS011;24349;53.720;10.014;2023-02-26T05:17:40;4.22;;;1.27;;
38581;SDS011;24349;53.720;10.014;2023-02-26T05:20:06;3.92;;;1.20;;
38581;SDS011;24349;53.720;10.014;2023-02-26T05:22:38;6.18;;;1.38;;
38581;SDS011;24349;53.720;10.014;2023-02-26T05:25:06;4.72;;;1.70;;
38581;SDS011;24349;53.720;10.014;2023-02-26T05:27:32;4.78;;;1.55;;
38581;SDS011;24349;53.720;10.014;2023-02-26T05:29:58;3.53;;;1.30;;
38581;SDS011;24349;53.720;10.014;2023-02-26T05:32:24;4.03;;;1.40;;
38581;SDS011;24349;53.720;10.014;2023-02-26T05:34:49;6.13;;;1.40;;
38581;SDS011;24349;53.720;10.014;2023-02-26T05:37:15;5.85;;;1.25;;
38581;SDS011;24349;53.720;10.014;2023-02-26T05:39:41;4.10;;;1.42;;
38581;SDS011;24349;53.720;10.014;2023-02-26T05:42:06;3.83;;;1.40;;
38581;SDS011;24349;53.720;10.014;2023-02-26T05:44:33;4.25;;;1.35;;
38581;SDS011;24349;53.720;10.014;2023-02-26T05:46:59;5.80;;;1.08;;
38581;SDS011;24349;53.720;10.014;2023-02-26T05:49:25;3.97;;;1.42;;
38581;SDS011;24349;53.720;10.014;2023-02-26T05:51:51;5.22;;;1.70;;
38581;SDS011;24349;53.720;10.014;2023-02-26T05:54:17;3.92;;;1.13;;
38581;SDS011;24349;53.720;10.014;2023-02-26T05:56:43;5.97;;;1.40;;
38581;SDS011;24349;53.720;10.014;2023-02-26T05:59:09;3.90;;;1.20;;
38581;SDS011;24349;53.720;10.014;2023-02-26T06:01:34;4.68;;;1.33;;
38581;SDS011;24349;53.720;10.014;2023-02-26T06:04:01;3.80;;;1.40;;
38581;SDS011;24349;53.720;10.014;2023-02-26T06:06:27;4.47;;;1.33;;
38581;SDS011;24349;53.720;10.014;2023-02-26T06:08:53;5.22;;;1.73;;
38581;SDS011;24349;53.720;10.014;2023-02-26T06:11:19;4.75;;;1.40;;
38581;SDS011;24349;53.720;10.014;2023-02-26T06:13:44;4.07;;;1.60;;
38581;SDS011;24349;53.720;10.014;2023-02-26T06:16:10;5.95;;;1.20;;
38581;SDS011;24349;53.720;10.014;2023-02-26T06:18:36;9.38;;;1.85;;
38581;SDS011;24349;53.720;10.014;2023-02-26T06:21:01;5.60;;;1.67;;
38581;SDS011;24349;53.720;10.014;2023-02-26T06:23:27;6.95;;;1.50;;
38581;SDS011;24349;53.720;10.014;2023-02-26T06:25:53;4.85;;;1.40;;
38581;SDS011;24349;53.720;10.014;2023-02-26T06:28:19;4.72;;;1.90;;
38581;SDS011;24349;53.720;10.014;2023-02-26T06:30:45;7.78;;;2.20;;
38581;SDS011;24349;53.720;10.014;2023-02-26T06:33:11;8.35;;;2.40;;
38581;SDS011;24349;53.720;10.014;2023-02-26T06:35:37;13.45;;;5.85;;
38581;SDS011;24349;53.720;10.014;2023-02-26T06:38:03;15.60;;;6.10;;
38581;SDS011;24349;53.720;10.014;2023-02-26T06:40:28;16.75;;;7.05;;
38581;SDS011;24349;53.720;10.014;2023-02-26T06:42:55;10.15;;;4.53;;
38581;SDS011;24349;53.720;10.014;2023-02-26T06:45:21;6.22;;;2.92;;
38581;SDS011;24349;53.720;10.014;2023-02-26T06:47:47;7.95;;;3.05;;
38581;SDS011;24349;53.720;10.014;2023-02-26T06:50:12;6.50;;;2.53;;
38581;SDS011;24349;53.720;10.014;2023-02-26T06:52:38;7.07;;;2.33;;
38581;SDS011;24349;53.720;10.014;2023-02-26T06:55:04;6.00;;;2.00;;
38581;SDS011;24349;53.720;10.014;2023-02-26T06:57:30;7.47;;;2.40;;
38581;SDS011;24349;53.720;10.014;2023-02-26T06:59:56;7.65;;;2.47;;
38581;SDS011;24349;53.720;10.014;2023-02-26T07:02:21;6.50;;;2.35;;
38581;SDS011;24349;53.720;10.014;2023-02-26T07:04:48;6.85;;;3.08;;
38581;SDS011;24349;53.720;10.014;2023-02-26T07:07:13;6.22;;;2.55;;
38581;SDS011;24349;53.720;10.014;2023-02-26T07:09:39;5.78;;;1.90;;
38581;SDS011;24349;53.720;10.014;2023-02-26T07:12:05;7.00;;;2.05;;
38581;SDS011;24349;53.720;10.014;2023-02-26T07:14:32;7.13;;;1.98;;
38581;SDS011;24349;53.720;10.014;2023-02-26T07:16:58;7.25;;;2.58;;
38581;SDS011;24349;53.720;10.014;2023-02-26T07:19:24;8.88;;;4.53;;
38581;SDS011;24349;53.720;10.014;2023-02-26T07:21:50;6.85;;;3.53;;
38581;SDS011;24349;53.720;10.014;2023-02-26T07:24:16;5.45;;;3.03;;
38581;SDS011;24349;53.720;10.014;2023-02-26T07:26:41;5.22;;;2.50;;
38581;SDS011;24349;53.720;10.014;2023-02-26T07:29:07;6.93;;;2.00;;
38581;SDS011;24349;53.720;10.014;2023-02-26T07:31:33;4.32;;;1.55;;
38581;SDS011;24349;53.720;10.014;2023-02-26T07:33:59;5.20;;;1.70;;
38581;SDS011;24349;53.720;10.014;2023-02-26T07:36:24;4.65;;;1.92;;
38581;SDS011;24349;53.720;10.014;2023-02-26T07:38:50;4.32;;;1.40;;
38581;SDS011;24349;53.720;10.014;2023-02-26T07:41:15;5.18;;;1.67;;
38581;SDS011;24349;53.720;10.014;2023-02-26T07:43:41;4.15;;;1.70;;
38581;SDS011;24349;53.720;10.014;2023-02-26T07:46:07;5.75;;;1.63;;
38581;SDS011;24349;53.720;10.014;2023-02-26T07:48:33;5.95;;;1.88;;
38581;SDS011;24349;53.720;10.014;2023-02-26T07:50:59;6.57;;;1.60;;
38581;SDS011;24349;53.720;10.014;2023-02-26T07:53:24;5.95;;;1.77;;
38581;SDS011;24349;53.720;10.014;2023-02-26T07:55:50;5.68;;;1.77;;
38581;SDS011;24349;53.720;10.014;2023-02-26T07:58:16;6.22;;;1.95;;
38581;SDS011;24349;53.720;10.014;2023-02-26T08:00:42;4.45;;;1.73;;
38581;SDS011;24349;53.720;10.014;2023-02-26T08:03:08;4.78;;;1.77;;
38581;SDS011;24349;53.720;10.014;2023-02-26T08:05:34;6.13;;;2.50;;
38581;SDS011;24349;53.720;10.014;2023-02-26T08:08:00;6.88;;;2.90;;
38581;SDS011;24349;53.720;10.014;2023-02-26T08:10:27;7.55;;;3.50;;
38581;SDS011;24349;53.720;10.014;2023-02-26T08:12:53;6.82;;;3.10;;
38581;SDS011;24349;53.720;10.014;2023-02-26T08:15:19;6.93;;;3.53;;
38581;SDS011;24349;53.720;10.014;2023-02-26T08:17:44;7.93;;;2.50;;
38581;SDS011;24349;53.720;10.014;2023-02-26T08:20:10;4.72;;;2.00;;
38581;SDS011;24349;53.720;10.014;2023-02-26T08:22:38;5.53;;;2.15;;
38581;SDS011;24349;53.720;10.014;2023-02-26T08:25:04;5.70;;;2.30;;
38581;SDS011;24349;53.720;10.014;2023-02-26T08:27:30;6.03;;;2.20;;
38581;SDS011;24349;53.720;10.014;2023-02-26T08:29:55;5.93;;;2.40;;
38581;SDS011;24349;53.720;10.014;2023-02-26T08:32:21;5.13;;;2.65;;
38581;SDS011;24349;53.720;10.014;2023-02-26T08:34:47;4.70;;;1.95;;
38581;SDS011;24349;53.720;10.014;2023-02-26T08:37:12;5.75;;;2.20;;
38581;SDS011;24349;53.720;10.014;2023-02-26T08:39:38;6.55;;;2.30;;
38581;SDS011;24349;53.720;10.014;2023-02-26T08:42:07;5.35;;;1.92;;
38581;SDS011;24349;53.720;10.014;2023-02-26T08:44:34;4.05;;;2.00;;
38581;SDS011;24349;53.720;10.014;2023-02-26T08:46:59;6.32;;;2.38;;
38581;SDS011;24349;53.720;10.014;2023-02-26T08:49:25;4.38;;;1.58;;
38581;SDS011;24349;53.720;10.014;2023-02-26T08:51:50;5.22;;;1.80;;
38581;SDS011;24349;53.720;10.014;2023-02-26T08:54:16;4.15;;;1.58;;
38581;SDS011;24349;53.720;10.014;2023-02-26T08:56:42;5.57;;;1.80;;
38581;SDS011;24349;53.720;10.014;2023-02-26T08:59:07;5.13;;;1.80;;
38581;SDS011;24349;53.720;10.014;2023-02-26T09:01:35;3.63;;;1.42;;
38581;SDS011;24349;53.720;10.014;2023-02-26T09:04:01;4.45;;;1.63;;
38581;SDS011;24349;53.720;10.014;2023-02-26T09:06:26;4.97;;;1.67;;
38581;SDS011;24349;53.720;10.014;2023-02-26T09:08:52;4.15;;;1.50;;
38581;SDS011;24349;53.720;10.014;2023-02-26T09:11:17;4.55;;;1.35;;
38581;SDS011;24349;53.720;10.014;2023-02-26T09:13:43;4.30;;;1.50;;
38581;SDS011;24349;53.720;10.014;2023-02-26T09:16:09;3.80;;;1.42;;
38581;SDS011;24349;53.720;10.014;2023-02-26T09:18:35;4.95;;;1.85;;
38581;SDS011;24349;53.720;10.014;2023-02-26T09:21:01;4.68;;;1.75;;
38581;SDS011;24349;53.720;10.014;2023-02-26T09:23:27;3.80;;;1.48;;
38581;SDS011;24349;53.720;10.014;2023-02-26T09:25:53;3.80;;;1.40;;
38581;SDS011;24349;53.720;10.014;2023-02-26T09:28:20;4.78;;;1.35;;
38581;SDS011;24349;53.720;10.014;2023-02-26T09:30:49;3.42;;;1.30;;
38581;SDS011;24349;53.720;10.014;2023-02-26T09:33:16;3.65;;;1.17;;
38581;SDS011;24349;53.720;10.014;2023-02-26T09:35:42;3.95;;;1.60;;
38581;SDS011;24349;53.720;10.014;2023-02-26T09:38:07;5.38;;;1.50;;
38581;SDS011;24349;53.720;10.014;2023-02-26T09:46:10;4.13;;;1.30;;
38581;SDS011;24349;53.720;10.014;2023-02-26T09:49:16;3.30;;;1.20;;
38581;SDS011;24349;53.720;10.014;2023-02-26T09:52:13;4.18;;;1.20;;
38581;SDS011;24349;53.720;10.014;2023-02-26T09:55:14;5.82;;;1.65;;
38581;SDS011;24349;53.720;10.014;2023-02-26T09:57:52;4.55;;;1.40;;
38581;SDS011;24349;53.720;10.014;2023-02-26T10:00:28;3.55;;;1.27;;
38581;SDS011;24349;53.720;10.014;2023-02-26T10:11:32;3.63;;;1.20;;
38581;SDS011;24349;53.720;10.014;2023-02-26T10:14:22;3.55;;;1.15;;
38581;SDS011;24349;53.720;10.014;2023-02-26T10:16:54;3.93;;;1.17;;
38581;SDS011;24349;53.720;10.014;2023-02-26T10:19:28;3.57;;;1.23;;
38581;SDS011;24349;53.720;10.014;2023-02-26T10:22:00;5.55;;;2.00;;
38581;SDS011;24349;53.720;10.014;2023-02-26T10:24:50;4.20;;;1.40;;
38581;SDS011;24349;53.720;10.014;2023-02-26T10:27:21;4.45;;;1.75;;
38581;SDS011;24349;53.720;10.014;2023-02-26T10:30:03;4.63;;;1.73;;
38581;SDS011;24349;53.720;10.014;2023-02-26T10:32:36;6.50;;;1.55;;
38581;SDS011;24349;53.720;10.014;2023-02-26T10:51:18;3.58;;;1.40;;
38581;SDS011;24349;53.720;10.014;2023-02-26T10:53:51;4.20;;;1.27;;
38581;SDS011;24349;53.720;10.014;2023-02-26T10:56:29;5.50;;;1.40;;
38581;SDS011;24349;53.720;10.014;2023-02-26T10:58:57;4.78;;;1.20;;
38581;SDS011;24349;53.720;10.014;2023-02-26T11:01:23;5.30;;;1.60;;
38581;SDS011;24349;53.720;10.014;2023-02-26T11:03:55;3.75;;;1.35;;
38581;SDS011;24349;53.720;10.014;2023-02-26T11:06:30;4.88;;;1.52;;
38581;SDS011;24349;53.720;10.014;2023-02-26T11:09:04;6.95;;;1.80;;
38581;SDS011;24349;53.720;10.014;2023-02-26T11:11:53;4.22;;;1.50;;
38581;SDS011;24349;53.720;10.014;2023-02-26T11:17:20;4.22;;;1.38;;
38581;SDS011;24349;53.720;10.014;2023-02-26T11:19:52;7.05;;;1.70;;
38581;SDS011;24349;53.720;10.014;2023-02-26T11:22:21;3.65;;;1.45;;
38581;SDS011;24349;53.720;10.014;2023-02-26T11:24:51;5.45;;;2.03;;
38581;SDS011;24349;53.720;10.014;2023-02-26T11:27:36;4.35;;;1.58;;
38581;SDS011;24349;53.720;10.014;2023-02-26T11:30:05;4.70;;;1.80;;
38581;SDS011;24349;53.720;10.014;2023-02-26T11:32:38;6.43;;;1.60;;
38581;SDS011;24349;53.720;10.014;2023-02-26T11:35:07;4.97;;;1.60;;
38581;SDS011;24349;53.720;10.014;2023-02-26T11:37:40;5.43;;;1.48;;
38581;SDS011;24349;53.720;10.014;2023-02-26T11:40:15;6.25;;;1.65;;
38581;SDS011;24349;53.720;10.014;2023-02-26T11:42:44;5.85;;;1.90;;
38581;SDS011;24349;53.720;10.014;2023-02-26T11:45:17;5.45;;;1.40;;
38581;SDS011;24349;53.720;10.014;2023-02-26T11:47:45;5.95;;;2.05;;
38581;SDS011;24349;53.720;10.014;2023-02-26T11:50:17;5.63;;;1.88;;
38581;SDS011;24349;53.720;10.014;2023-02-26T11:52:47;5.15;;;1.80;;
38581;SDS011;24349;53.720;10.014;2023-02-26T11:55:31;5.95;;;2.15;;
38581;SDS011;24349;53.720;10.014;2023-02-26T11:58:00;5.50;;;1.75;;
38581;SDS011;24349;53.720;10.014;2023-02-26T12:00:30;4.65;;;1.70;;
38581;SDS011;24349;53.720;10.014;2023-02-26T12:03:06;4.70;;;1.83;;
38581;SDS011;24349;53.720;10.014;2023-02-26T12:05:39;6.78;;;1.60;;
38581;SDS011;24349;53.720;10.014;2023-02-26T12:08:06;4.45;;;1.70;;
38581;SDS011;24349;53.720;10.014;2023-02-26T12:11:14;4.55;;;1.63;;
38581;SDS011;24349;53.720;10.014;2023-02-26T12:30:19;4.47;;;1.58;;
38581;SDS011;24349;53.720;10.014;2023-02-26T12:38:23;4.38;;;1.40;;
38581;SDS011;24349;53.720;10.014;2023-02-26T13:06:39;4.60;;;2.10;;
38581;SDS011;24349;53.720;10.014;2023-02-26T13:11:58;6.75;;;1.70;;
38581;SDS011;24349;53.720;10.014;2023-02-26T13:22:19;5.63;;;2.40;;
38581;SDS011;24349;53.720;10.014;2023-02-26T13:25:02;5.88;;;1.80;;
38581;SDS011;24349;53.720;10.014;2023-02-26T13:27:34;4.80;;;1.75;;
38581;SDS011;24349;53.720;10.014;2023-02-26T13:32:42;6.35;;;2.15;;
38581;SDS011;24349;53.720;10.014;2023-02-26T13:35:19;5.32;;;1.50;;
38581;SDS011;24349;53.720;10.014;2023-02-26T13:37:53;4.70;;;1.38;;
38581;SDS011;24349;53.720;10.014;2023-02-26T13:51:41;3.60;;;1.52;;
38581;SDS011;24349;53.720;10.014;2023-02-26T13:59:23;4.55;;;1.20;;
38581;SDS011;24349;53.720;10.014;2023-02-26T14:02:29;5.28;;;1.40;;
38581;SDS011;24349;53.720;10.014;2023-02-26T14:04:58;4.30;;;1.10;;
38581;SDS011;24349;53.720;10.014;2023-02-26T14:10:23;3.75;;;1.40;;
38581;SDS011;24349;53.720;10.014;2023-02-26T14:13:15;4.75;;;1.40;;
38581;SDS011;24349;53.720;10.014;2023-02-26T14:15:58;3.30;;;1.05;;
38581;SDS011;24349;53.720;10.014;2023-02-26T14:23:59;4.68;;;1.40;;
38581;SDS011;24349;53.720;10.014;2023-02-26T14:27:19;5.38;;;1.90;;
38581;SDS011;24349;53.720;10.014;2023-02-26T14:33:06;4.45;;;1.20;;
38581;SDS011;24349;53.720;10.014;2023-02-26T14:37:42;6.03;;;1.50;;
38581;SDS011;24349;53.720;10.014;2023-02-26T14:40:15;4.53;;;1.25;;
38581;SDS011;24349;53.720;10.014;2023-02-26T14:42:48;4.60;;;1.17;;
38581;SDS011;24349;53.720;10.014;2023-02-26T14:47:56;5.10;;;1.33;;
38581;SDS011;24349;53.720;10.014;2023-02-26T14:50:24;5.00;;;1.52;;
38581;SDS011;24349;53.720;10.014;2023-02-26T15:03:42;5.78;;;2.35;;
38581;SDS011;24349;53.720;10.014;2023-02-26T15:11:55;7.22;;;2.97;;
38581;SDS011;24349;53.720;10.014;2023-02-26T15:14:29;7.45;;;2.80;;
38581;SDS011;24349;53.720;10.014;2023-02-26T15:17:25;3.75;;;1.63;;
38581;SDS011;24349;53.720;10.014;2023-02-26T15:22:40;5.82;;;1.95;;
38581;SDS011;24349;53.720;10.014;2023-02-26T15:25:39;4.60;;;1.75;;
38581;SDS011;24349;53.720;10.014;2023-02-26T15:28:16;5.75;;;1.88;;
38581;SDS011;24349;53.720;10.014;2023-02-26T15:30:54;6.57;;;1.70;;
38581;SDS011;24349;53.720;10.014;2023-02-26T15:33:22;5.78;;;1.88;;
38581;SDS011;24349;53.720;10.014;2023-02-26T15:35:50;3.65;;;1.33;;
38581;SDS011;24349;53.720;10.014;2023-02-26T15:38:16;6.60;;;1.52;;
38581;SDS011;24349;53.720;10.014;2023-02-26T15:40:43;3.75;;;1.30;;
38581;SDS011;24349;53.720;10.014;2023-02-26T15:43:11;4.55;;;1.63;;
38581;SDS011;24349;53.720;10.014;2023-02-26T15:45:41;5.72;;;1.40;;
38581;SDS011;24349;53.720;10.014;2023-02-26T15:48:14;6.78;;;1.70;;
38581;SDS011;24349;53.720;10.014;2023-02-26T15:50:52;4.25;;;1.40;;
38581;SDS011;24349;53.720;10.014;2023-02-26T15:53:28;7.60;;;1.63;;
38581;SDS011;24349;53.720;10.014;2023-02-26T15:55:56;4.03;;;1.38;;
38581;SDS011;24349;53.720;10.014;2023-02-26T15:58:35;4.13;;;1.40;;
38581;SDS011;24349;53.720;10.014;2023-02-26T16:01:12;6.47;;;1.70;;
38581;SDS011;24349;53.720;10.014;2023-02-26T16:03:40;5.57;;;1.50;;
38581;SDS011;24349;53.720;10.014;2023-02-26T16:06:09;4.22;;;1.30;;
38581;SDS011;24349;53.720;10.014;2023-02-26T16:08:37;4.55;;;1.98;;
38581;SDS011;24349;53.720;10.014;2023-02-26T16:11:03;4.53;;;1.80;;
38581;SDS011;24349;53.720;10.014;2023-02-26T16:13:30;5.82;;;2.00;;
38581;SDS011;24349;53.720;10.014;2023-02-26T16:15:59;5.72;;;1.70;;
38581;SDS011;24349;53.720;10.014;2023-02-26T16:18:29;5.63;;;1.77;;
38581;SDS011;24349;53.720;10.014;2023-02-26T16:20:57;6.03;;;2.08;;
38581;SDS011;24349;53.720;10.014;2023-02-26T16:23:32;9.20;;;4.28;;
38581;SDS011;24349;53.720;10.014;2023-02-26T16:26:06;6.40;;;2.70;;
38581;SDS011;24349;53.720;10.014;2023-02-26T16:28:37;4.72;;;1.55;;
38581;SDS011;24349;53.720;10.014;2023-02-26T16:31:14;6.10;;;1.60;;
38581;SDS011;24349;53.720;10.014;2023-02-26T16:33:47;4.88;;;1.40;;
38581;SDS011;24349;53.720;10.014;2023-02-26T16:36:18;4.88;;;1.70;;
38581;SDS011;24349;53.720;10.014;2023-02-26T16:38:49;2.60;;;1.00;;
38581;SDS011;24349;53.720;10.014;2023-02-26T16:41:24;4.60;;;1.70;;
38581;SDS011;24349;53.720;10.014;2023-02-26T16:49:00;4.90;;;1.50;;
38581;SDS011;24349;53.720;10.014;2023-02-26T16:51:35;5.10;;;1.40;;
38581;SDS011;24349;53.720;10.014;2023-02-26T16:54:08;5.75;;;1.90;;
38581;SDS011;24349;53.720;10.014;2023-02-26T16:56:47;5.30;;;1.92;;
38581;SDS011;24349;53.720;10.014;2023-02-26T16:59:24;6.80;;;2.53;;
38581;SDS011;24349;53.720;10.014;2023-02-26T17:01:55;5.22;;;2.08;;
38581;SDS011;24349;53.720;10.014;2023-02-26T17:04:42;4.82;;;1.42;;
38581;SDS011;24349;53.720;10.014;2023-02-26T17:07:15;5.93;;;1.60;;
38581;SDS011;24349;53.720;10.014;2023-02-26T17:09:48;7.57;;;2.78;;
38581;SDS011;24349;53.720;10.014;2023-02-26T17:12:17;8.50;;;2.50;;
38581;SDS011;24349;53.720;10.014;2023-02-26T17:14:46;5.38;;;2.15;;
38581;SDS011;24349;53.720;10.014;2023-02-26T17:17:16;7.50;;;2.58;;
38581;SDS011;24349;53.720;10.014;2023-02-26T17:19:42;6.18;;;2.33;;
38581;SDS011;24349;53.720;10.014;2023-02-26T17:22:12;6.43;;;2.05;;
38581;SDS011;24349;53.720;10.014;2023-02-26T17:24:43;5.97;;;2.13;;
38581;SDS011;24349;53.720;10.014;2023-02-26T17:27:23;6.30;;;2.10;;
38581;SDS011;24349;53.720;10.014;2023-02-26T17:29:56;5.30;;;2.20;;
38581;SDS011;24349;53.720;10.014;2023-02-26T17:32:24;3.40;;;1.35;;
38581;SDS011;24349;53.720;10.014;2023-02-26T17:34:50;4.78;;;1.60;;
38581;SDS011;24349;53.720;10.014;2023-02-26T17:37:17;4.05;;;1.60;;
38581;SDS011;24349;53.720;10.014;2023-02-26T17:39:43;4.80;;;1.50;;
38581;SDS011;24349;53.720;10.014;2023-02-26T17:42:14;8.02;;;2.30;;
38581;SDS011;24349;53.720;10.014;2023-02-26T17:44:43;4.78;;;2.22;;
38581;SDS011;24349;53.720;10.014;2023-02-26T17:47:18;5.68;;;2.20;;
38581;SDS011;24349;53.720;10.014;2023-02-26T17:49:45;6.07;;;2.40;;
38581;SDS011;24349;53.720;10.014;2023-02-26T17:52:11;5.32;;;2.10;;
38581;SDS011;24349;53.720;10.014;2023-02-26T17:54:37;6.60;;;2.72;;
38581;SDS011;24349;53.720;10.014;2023-02-26T17:57:03;9.15;;;3.28;;
38581;SDS011;24349;53.720;10.014;2023-02-26T17:59:30;9.45;;;3.00;;
38581;SDS011;24349;53.720;10.014;2023-02-26T18:01:55;5.93;;;2.38;;
38581;SDS011;24349;53.720;10.014;2023-02-26T18:04:21;5.82;;;2.70;;
38581;SDS011;24349;53.720;10.014;2023-02-26T18:06:47;8.40;;;3.60;;
38581;SDS011;24349;53.720;10.014;2023-02-26T18:09:13;9.30;;;3.78;;
38581;SDS011;24349;53.720;10.014;2023-02-26T18:11:39;7.72;;;3.70;;
38581;SDS011;24349;53.720;10.014;2023-02-26T18:14:06;7.65;;;3.85;;
38581;SDS011;24349;53.720;10.014;2023-02-26T18:16:33;9.77;;;3.90;;
38581;SDS011;24349;53.720;10.014;2023-02-26T18:19:02;9.93;;;4.13;;